Shenlong Spirit — C6XA2 — position and weather

sailwx.info

Track history (hours):
 
Tides and Currents Weather Stations Pressure Air Temp Water Temp Dewpoint Dewpoint Depression Visibility Wind Speed Wind Dir Waves Ship Positions

Shenlong Spirit

Last reported at 2017-Nov-23 23:39 UTC. Time now 2017-Nov-24 02:20 UTC.
Position N 51°47' W 005°16'.

Length 275 m; draft 16 m.

Type: Tanker. MMSI: 309504000.

Date/timePositionNaut miles runAvg speedWind from/ knotsBaromVisibWave heightAir tempDewpointWater temp
2017-Nov-23 23:39N 51°47' W 005°16'0 0.1
2017-Nov-23 23:09N 51°47' W 005°16'0 0.1
2017-Nov-23 22:57N 51°47' W 005°16'0 0.1
2017-Nov-23 20:33N 51°47' W 005°16'1 0.5
2017-Nov-23 18:31N 51°46' W 005°16'0 3.3
2017-Nov-23 18:30N 51°46' W 005°16'6 5.4
2017-Nov-23 17:28N 51°44' W 005°24'4 8.1
2017-Nov-23 17:00N 51°40' W 005°26'4 8.2
2017-Nov-23 16:30N 51°36' W 005°27'5 8.0
2017-Nov-23 15:55N 51°31' W 005°29'1 0.5
2017-Nov-23 13:24N 51°32' W 005°27'1 0.7
2017-Nov-23 12:19N 51°31' W 005°25'1 1.6
2017-Nov-23 12:00N 51°31' W 005°25'1 2.0
2017-Nov-23 11:29N 51°30' W 005°24'1 2.4
2017-Nov-23 10:59N 51°29' W 005°23'1 2.3
2017-Nov-23 10:29N 51°28' W 005°24'1 2.2
2017-Nov-23 10:01N 51°27' W 005°24'2 2.2
2017-Nov-23 09:14N 51°25' W 005°25'15 2.4
2017-Nov-23 03:02N 51°13' W 005°38'0 2.8
2017-Nov-23 02:58N 51°13' W 005°38'2 3.0
2017-Nov-23 02:28N 51°14' W 005°37'9 2.5
2017-Nov-22 22:48N 51°21' W 005°27'1 1.4
2017-Nov-22 21:55N 51°21' W 005°25'1 1.3
2017-Nov-22 21:22N 51°22' W 005°24'0 1.0
2017-Nov-22 21:00N 51°22' W 005°23'1 1.3
2017-Nov-22 20:30N 51°22' W 005°22'0 0.7
2017-Nov-22 20:00N 51°22' W 005°22'0 0.4
2017-Nov-22 19:29N 51°22' W 005°22'  
2017-Nov-20 00:11N 51°46' W 005°18'0 0.3
2017-Nov-19 23:59N 51°46' W 005°18'0 0.0
2017-Nov-19 21:47N 51°46' W 005°18'0 0.0
2017-Nov-19 21:23N 51°46' W 005°18'0 0.2
2017-Nov-19 19:17N 51°47' W 005°17'0 0.3
2017-Nov-19 18:47N 51°46' W 005°17'0 0.1
2017-Nov-19 17:11N 51°47' W 005°17'0 0.2
2017-Nov-19 16:59N 51°47' W 005°17'0 0.1
2017-Nov-19 16:17N 51°47' W 005°17'0 0.0
2017-Nov-19 15:41N 51°47' W 005°17'0 0.1
2017-Nov-19 15:29N 51°47' W 005°17'0 0.1
2017-Nov-19 14:59N 51°47' W 005°17'0 0.2
2017-Nov-19 14:23N 51°46' W 005°17'0 0.1
2017-Nov-19 12:41N 51°46' W 005°18'0 0.0
2017-Nov-19 12:23N 51°46' W 005°17'0 0.0
2017-Nov-19 07:47N 51°46' W 005°18'0 0.2
2017-Nov-19 06:23N 51°47' W 005°17'0 0.1
2017-Nov-19 05:47N 51°47' W 005°17'0 0.3
2017-Nov-19 05:29N 51°47' W 005°17'0 0.1
2017-Nov-19 04:59N 51°47' W 005°17'0 0.3
2017-Nov-19 04:23N 51°47' W 005°18'0 0.1
2017-Nov-19 03:59N 51°47' W 005°17'0 0.1
2017-Nov-19 00:53N 51°46' W 005°18'0 0.1
2017-Nov-19 00:23N 51°46' W 005°18'0 0.1
2017-Nov-18 23:53N 51°46' W 005°18'0 0.0
2017-Nov-18 23:17N 51°46' W 005°18'0 0.1
2017-Nov-18 22:59N 51°46' W 005°18'0 0.0
2017-Nov-18 22:29N 51°46' W 005°18'0 0.1
2017-Nov-18 21:53N 51°46' W 005°18'0 0.1
2017-Nov-18 21:29N 51°46' W 005°18'0 0.0
2017-Nov-18 20:06N 51°46' W 005°18'0 0.1
2017-Nov-18 19:41N 51°46' W 005°17'0 0.1
2017-Nov-18 19:29N 51°46' W 005°17'0 0.2
2017-Nov-18 17:53N 51°47' W 005°17'0 0.0
2017-Nov-18 17:17N 51°47' W 005°17'0 0.1
2017-Nov-18 15:53N 51°47' W 005°17'0 0.1
2017-Nov-18 13:53N 51°46' W 005°17'0 0.1
2017-Nov-18 12:17N 51°46' W 005°18'0 0.1
2017-Nov-18 11:35N 51°46' W 005°18'0 0.1
2017-Nov-18 11:29N 51°46' W 005°18'0 0.1
2017-Nov-18 10:54N 51°46' W 005°18'1 1.2
2017-Nov-18 10:28N 51°46' W 005°17'4 6.5
2017-Nov-18 09:55N 51°47' W 005°23'410.2
2017-Nov-18 09:31N 51°43' W 005°24'611.6
2017-Nov-18 09:00N 51°37' W 005°24'613.0
2017-Nov-18 08:30N 51°30' W 005°26'  
2017-Nov-15 21:01N 39°31' W 009°57'011.7
2017-Nov-15 21:00N 39°31' W 009°57'611.9
2017-Nov-15 20:30N 39°25' W 009°57'612.1
2017-Nov-15 20:00N 39°19' W 009°57'612.2
2017-Nov-15 19:30N 39°12' W 009°57'612.1
2017-Nov-15 19:00N 39°06' W 009°57'612.1
2017-Nov-15 18:30N 39°00' W 009°57'612.1
2017-Nov-15 18:00N 38°54' W 009°57'612.3
2017-Nov-15 17:31N 38°48' W 009°57'612.4
2017-Nov-15 17:00N 38°42' W 009°57'612.3
2017-Nov-15 16:29N 38°36' W 009°55'612.1
2017-Nov-15 16:00N 38°30' W 009°53'612.1
2017-Nov-15 15:31N 38°24' W 009°51'612.0
2017-Nov-15 15:00N 38°18' W 009°50'1112.1
2017-Nov-15 14:08N 38°08' W 009°47'612.3
2017-Nov-15 13:37N 38°02' W 009°45'211.5
2017-Nov-15 13:28N 38°00' W 009°45'1310.3
2017-Nov-15 12:12N 37°48' W 009°41'710.2
2017-Nov-15 11:28N 37°40' W 009°39'22710.9
2017-Nov-14 14:39N 35°60' W 005°24'110.0
2017-Nov-14 14:30N 35°60' W 005°22'5 9.8
2017-Nov-14 14:00N 36°01' W 005°16'2 1.9
2017-Nov-14 12:46N 35°60' W 005°13'0 1.6
2017-Nov-14 12:30N 35°60' W 005°14'2 3.2
2017-Nov-14 12:00N 35°58' W 005°15'1 1.8
2017-Nov-14 11:30N 35°58' W 005°16'2 4.1
2017-Nov-14 11:00N 35°57' W 005°18'2 4.4
2017-Nov-14 10:30N 35°56' W 005°20'1 1.5
2017-Nov-14 10:00N 35°55' W 005°19'0 0.1
2017-Nov-14 09:30N 35°55' W 005°19'0 0.1
2017-Nov-14 09:00N 35°55' W 005°20'0 0.0
2017-Nov-14 08:24N 35°55' W 005°20'0 0.0
2017-Nov-14 08:00N 35°55' W 005°20'0 0.0
2017-Nov-14 07:30N 35°55' W 005°19'0 0.0
2017-Nov-14 07:00N 35°55' W 005°20'0 0.0
2017-Nov-14 06:30N 35°55' W 005°20'0 0.0
2017-Nov-14 06:00N 35°55' W 005°20'0 0.0
2017-Nov-14 05:30N 35°55' W 005°20'0 0.0
2017-Nov-14 05:00N 35°55' W 005°20'0 0.1
2017-Nov-14 04:30N 35°55' W 005°19'0 0.1
2017-Nov-14 04:00N 35°55' W 005°19'0 0.4
2017-Nov-14 03:30N 35°55' W 005°20'0 0.3
2017-Nov-14 03:00N 35°55' W 005°20'0 0.2
2017-Nov-14 02:30N 35°55' W 005°20'0 0.2
2017-Nov-14 02:00N 35°55' W 005°20'0 0.2
2017-Nov-14 01:30N 35°55' W 005°20'0 0.1
2017-Nov-14 01:00N 35°55' W 005°20'0 0.1
2017-Nov-14 00:30N 35°55' W 005°20'0 0.1
2017-Nov-14 00:00N 35°55' W 005°20'  
Track history (hours):
 
Tides and Currents Weather Stations Pressure Air Temp Water Temp Dewpoint Dewpoint Depression Visibility Wind Speed Wind Dir Waves Ship Positions

Shenlong Spirit

Last reported at 2017-Nov-23 23:39 UTC. Time now 2017-Nov-24 02:20 UTC.
Position N 51°47' W 005°16'.

Length 275 m; draft 16 m.

Type: Tanker. MMSI: 309504000.

Date/timePositionNaut miles runAvg speedWind from/ knotsBaromVisibWave heightAir tempDewpointWater temp
2017-Nov-23 23:39N 51°47' W 005°16'0 0.1
2017-Nov-23 23:09N 51°47' W 005°16'0 0.1
2017-Nov-23 22:57N 51°47' W 005°16'0 0.1
2017-Nov-23 20:33N 51°47' W 005°16'1 0.5
2017-Nov-23 18:31N 51°46' W 005°16'0 3.3
2017-Nov-23 18:30N 51°46' W 005°16'6 5.4
2017-Nov-23 17:28N 51°44' W 005°24'4 8.1
2017-Nov-23 17:00N 51°40' W 005°26'4 8.2
2017-Nov-23 16:30N 51°36' W 005°27'5 8.0
2017-Nov-23 15:55N 51°31' W 005°29'1 0.5
2017-Nov-23 13:24N 51°32' W 005°27'1 0.7
2017-Nov-23 12:19N 51°31' W 005°25'1 1.6
2017-Nov-23 12:00N 51°31' W 005°25'1 2.0
2017-Nov-23 11:29N 51°30' W 005°24'1 2.4
2017-Nov-23 10:59N 51°29' W 005°23'1 2.3
2017-Nov-23 10:29N 51°28' W 005°24'1 2.2
2017-Nov-23 10:01N 51°27' W 005°24'2 2.2
2017-Nov-23 09:14N 51°25' W 005°25'15 2.4
2017-Nov-23 03:02N 51°13' W 005°38'0 2.8
2017-Nov-23 02:58N 51°13' W 005°38'2 3.0
2017-Nov-23 02:28N 51°14' W 005°37'9 2.5
2017-Nov-22 22:48N 51°21' W 005°27'1 1.4
2017-Nov-22 21:55N 51°21' W 005°25'1 1.3
2017-Nov-22 21:22N 51°22' W 005°24'0 1.0
2017-Nov-22 21:00N 51°22' W 005°23'1 1.3
2017-Nov-22 20:30N 51°22' W 005°22'0 0.7
2017-Nov-22 20:00N 51°22' W 005°22'0 0.4
2017-Nov-22 19:29N 51°22' W 005°22'  
2017-Nov-20 00:11N 51°46' W 005°18'0 0.3
2017-Nov-19 23:59N 51°46' W 005°18'0 0.0
2017-Nov-19 21:47N 51°46' W 005°18'0 0.0
2017-Nov-19 21:23N 51°46' W 005°18'0 0.2
2017-Nov-19 19:17N 51°47' W 005°17'0 0.3
2017-Nov-19 18:47N 51°46' W 005°17'0 0.1
2017-Nov-19 17:11N 51°47' W 005°17'0 0.2
2017-Nov-19 16:59N 51°47' W 005°17'0 0.1
2017-Nov-19 16:17N 51°47' W 005°17'0 0.0
2017-Nov-19 15:41N 51°47' W 005°17'0 0.1
2017-Nov-19 15:29N 51°47' W 005°17'0 0.1
2017-Nov-19 14:59N 51°47' W 005°17'0 0.2
2017-Nov-19 14:23N 51°46' W 005°17'0 0.1
2017-Nov-19 12:41N 51°46' W 005°18'0 0.0
2017-Nov-19 12:23N 51°46' W 005°17'0 0.0
2017-Nov-19 07:47N 51°46' W 005°18'0 0.2
2017-Nov-19 06:23N 51°47' W 005°17'0 0.1
2017-Nov-19 05:47N 51°47' W 005°17'0 0.3
2017-Nov-19 05:29N 51°47' W 005°17'0 0.1
2017-Nov-19 04:59N 51°47' W 005°17'0 0.3
2017-Nov-19 04:23N 51°47' W 005°18'0 0.1
2017-Nov-19 03:59N 51°47' W 005°17'0 0.1
2017-Nov-19 00:53N 51°46' W 005°18'0 0.1
2017-Nov-19 00:23N 51°46' W 005°18'0 0.1
2017-Nov-18 23:53N 51°46' W 005°18'0 0.0
2017-Nov-18 23:17N 51°46' W 005°18'0 0.1
2017-Nov-18 22:59N 51°46' W 005°18'0 0.0
2017-Nov-18 22:29N 51°46' W 005°18'0 0.1
2017-Nov-18 21:53N 51°46' W 005°18'0 0.1
2017-Nov-18 21:29N 51°46' W 005°18'0 0.0
2017-Nov-18 20:06N 51°46' W 005°18'0 0.1
2017-Nov-18 19:41N 51°46' W 005°17'0 0.1
2017-Nov-18 19:29N 51°46' W 005°17'0 0.2
2017-Nov-18 17:53N 51°47' W 005°17'0 0.0
2017-Nov-18 17:17N 51°47' W 005°17'0 0.1
2017-Nov-18 15:53N 51°47' W 005°17'0 0.1
2017-Nov-18 13:53N 51°46' W 005°17'0 0.1
2017-Nov-18 12:17N 51°46' W 005°18'0 0.1
2017-Nov-18 11:35N 51°46' W 005°18'0 0.1
2017-Nov-18 11:29N 51°46' W 005°18'0 0.1
2017-Nov-18 10:54N 51°46' W 005°18'1 1.2
2017-Nov-18 10:28N 51°46' W 005°17'4 6.5
2017-Nov-18 09:55N 51°47' W 005°23'410.2
2017-Nov-18 09:31N 51°43' W 005°24'611.6
2017-Nov-18 09:00N 51°37' W 005°24'613.0
2017-Nov-18 08:30N 51°30' W 005°26'  
2017-Nov-15 21:01N 39°31' W 009°57'011.7
2017-Nov-15 21:00N 39°31' W 009°57'611.9
2017-Nov-15 20:30N 39°25' W 009°57'612.1
2017-Nov-15 20:00N 39°19' W 009°57'612.2
2017-Nov-15 19:30N 39°12' W 009°57'612.1
2017-Nov-15 19:00N 39°06' W 009°57'612.1
2017-Nov-15 18:30N 39°00' W 009°57'612.1
2017-Nov-15 18:00N 38°54' W 009°57'612.3
2017-Nov-15 17:31N 38°48' W 009°57'612.4
2017-Nov-15 17:00N 38°42' W 009°57'612.3
2017-Nov-15 16:29N 38°36' W 009°55'612.1
2017-Nov-15 16:00N 38°30' W 009°53'612.1
2017-Nov-15 15:31N 38°24' W 009°51'612.0
2017-Nov-15 15:00N 38°18' W 009°50'1112.1
2017-Nov-15 14:08N 38°08' W 009°47'612.3
2017-Nov-15 13:37N 38°02' W 009°45'211.5
2017-Nov-15 13:28N 38°00' W 009°45'1310.3
2017-Nov-15 12:12N 37°48' W 009°41'710.2
2017-Nov-15 11:28N 37°40' W 009°39'22710.9
2017-Nov-14 14:39N 35°60' W 005°24'110.0
2017-Nov-14 14:30N 35°60' W 005°22'5 9.8
2017-Nov-14 14:00N 36°01' W 005°16'2 1.9
2017-Nov-14 12:46N 35°60' W 005°13'0 1.6
2017-Nov-14 12:30N 35°60' W 005°14'2 3.2
2017-Nov-14 12:00N 35°58' W 005°15'1 1.8
2017-Nov-14 11:30N 35°58' W 005°16'2 4.1
2017-Nov-14 11:00N 35°57' W 005°18'2 4.4
2017-Nov-14 10:30N 35°56' W 005°20'1 1.5
2017-Nov-14 10:00N 35°55' W 005°19'0 0.1
2017-Nov-14 09:30N 35°55' W 005°19'0 0.1
2017-Nov-14 09:00N 35°55' W 005°20'0 0.0
2017-Nov-14 08:24N 35°55' W 005°20'0 0.0
2017-Nov-14 08:00N 35°55' W 005°20'0 0.0
2017-Nov-14 07:30N 35°55' W 005°19'0 0.0
2017-Nov-14 07:00N 35°55' W 005°20'0 0.0
2017-Nov-14 06:30N 35°55' W 005°20'0 0.0
2017-Nov-14 06:00N 35°55' W 005°20'0 0.0
2017-Nov-14 05:30N 35°55' W 005°20'0 0.0
2017-Nov-14 05:00N 35°55' W 005°20'0 0.1
2017-Nov-14 04:30N 35°55' W 005°19'0 0.1
2017-Nov-14 04:00N 35°55' W 005°19'0 0.4
2017-Nov-14 03:30N 35°55' W 005°20'0 0.3
2017-Nov-14 03:00N 35°55' W 005°20'0 0.2
2017-Nov-14 02:30N 35°55' W 005°20'0 0.2
2017-Nov-14 02:00N 35°55' W 005°20'0 0.2
2017-Nov-14 01:30N 35°55' W 005°20'0 0.1
2017-Nov-14 01:00N 35°55' W 005°20'0 0.1
2017-Nov-14 00:30N 35°55' W 005°20'0 0.1
2017-Nov-14 00:00N 35°55' W 005°20'  

Dump ship's entire track history